Pagrindinis puslapis
METAR-TAF:

METAR-TAF

Oro uostai :

Holginas, Kuba

platuma: 20-47N, ilguma: 076-19W, Aukštis: 106 m

Dabartinis oras

Ataskaita buvo paskelbta 37 minutes, ne 13:50 UTC
Vėjas 5 kt iš Šiaurės Rytų, svyruoja nuo Šiaurės/Šiaurės Rytų ir Rytų
Temperatūra 26°C
Drėgmė 65%
Slėgis 1018 hPa
Matomumas: 9000 m
Išsisklaidę debesys ne aukštis 2000 ft

METAR: MUHG 211350Z 05005KT 020V090 9000 SCT020 26/19 Q1018

Laikas: 09:27 (14:27 UTC)

Prognozė

Ataskaita buvo paskelbta 3 valandos ir 27 minutes, ne 11:00 UTC
Prognozė galioja nuo 21 metu 12 UTC su 22 metu 12 UTC
Vėjas 3 kt nuo kintamojo kryptimis
Matomumas: 9000 m
Išsisklaidę debesys ne aukštis 2000 ft
Tapsmas
nuo 21 metu 15 UTC su 21 metu 17 UTC
Vėjas 10 kt iš Šiaurės Rytų
Tapsmas
nuo 22 metu 01 UTC su 22 metu 03 UTC
Vėjas 3 kt nuo kintamojo kryptimis

TAF: MUHG 211100Z 2112/2212 VRB03KT 9000 SCT020 BECMG 2115/2117 04010KT BECMG 2201/2203 VRB03KT

Orai ataskaitas ir orų prognozės (METAR, TAF).

turimą stotys yra geltonos ir raudonos taškus žemėlapyje.

Perkelti pele per norėdami pamatyti stoties vardą.

Tada spustelėkite, norėdami matyti oro stebėjimo ir prognozės.

Norėdami pakeisti žemėlapį: spustelėkite ant žalios mygtukų su juodo kryžiaus žemyn,; žalią mygtuką su brūkšneliu, jei norite nutolinti; arba žalių rodyklių gretimoms žemėlapius.


METAR-TAF: